sensor_id;sensor_type;location;lat;lon;timestamp;P1;durP1;ratioP1;P2;durP2;ratioP2
49015;SDS011;34830;44.064;12.566;2024-03-07T00:02:19;4.35;;;1.65;;
49015;SDS011;34830;44.064;12.566;2024-03-07T00:19:36;4.50;;;1.30;;
49015;SDS011;34830;44.064;12.566;2024-03-07T00:22:02;6.10;;;2.00;;
49015;SDS011;34830;44.064;12.566;2024-03-07T00:24:29;7.68;;;1.42;;
49015;SDS011;34830;44.064;12.566;2024-03-07T00:26:56;3.63;;;1.50;;
49015;SDS011;34830;44.064;12.566;2024-03-07T00:29:22;5.07;;;1.60;;
49015;SDS011;34830;44.064;12.566;2024-03-07T00:31:49;8.43;;;1.50;;
49015;SDS011;34830;44.064;12.566;2024-03-07T00:34:15;3.75;;;1.45;;
49015;SDS011;34830;44.064;12.566;2024-03-07T00:36:42;7.05;;;1.88;;
49015;SDS011;34830;44.064;12.566;2024-03-07T00:39:08;4.47;;;1.50;;
49015;SDS011;34830;44.064;12.566;2024-03-07T00:41:40;3.42;;;1.48;;
49015;SDS011;34830;44.064;12.566;2024-03-07T00:44:07;6.00;;;2.15;;
49015;SDS011;34830;44.064;12.566;2024-03-07T00:46:36;5.10;;;1.70;;
49015;SDS011;34830;44.064;12.566;2024-03-07T00:49:03;3.22;;;1.60;;
49015;SDS011;34830;44.064;12.566;2024-03-07T00:51:29;4.22;;;1.85;;
49015;SDS011;34830;44.064;12.566;2024-03-07T00:53:55;9.32;;;2.85;;
49015;SDS011;34830;44.064;12.566;2024-03-07T00:56:21;7.20;;;1.70;;
49015;SDS011;34830;44.064;12.566;2024-03-07T00:58:48;3.20;;;1.40;;
49015;SDS011;34830;44.064;12.566;2024-03-07T01:01:14;4.85;;;1.73;;
49015;SDS011;34830;44.064;12.566;2024-03-07T01:03:41;4.13;;;1.70;;
49015;SDS011;34830;44.064;12.566;2024-03-07T01:06:07;4.78;;;1.98;;
49015;SDS011;34830;44.064;12.566;2024-03-07T01:08:35;6.35;;;1.92;;
49015;SDS011;34830;44.064;12.566;2024-03-07T01:11:05;3.90;;;1.92;;
49015;SDS011;34830;44.064;12.566;2024-03-07T01:13:41;4.68;;;2.58;;
49015;SDS011;34830;44.064;12.566;2024-03-07T01:16:07;5.35;;;2.33;;
49015;SDS011;34830;44.064;12.566;2024-03-07T01:18:34;4.22;;;2.15;;
49015;SDS011;34830;44.064;12.566;2024-03-07T01:21:03;5.28;;;2.13;;
49015;SDS011;34830;44.064;12.566;2024-03-07T01:23:30;5.93;;;2.33;;
49015;SDS011;34830;44.064;12.566;2024-03-07T01:25:57;7.13;;;2.15;;
49015;SDS011;34830;44.064;12.566;2024-03-07T01:28:24;4.63;;;2.15;;
49015;SDS011;34830;44.064;12.566;2024-03-07T01:30:51;6.00;;;2.50;;
49015;SDS011;34830;44.064;12.566;2024-03-07T01:33:21;8.68;;;3.10;;
49015;SDS011;34830;44.064;12.566;2024-03-07T01:35:47;4.15;;;2.03;;
49015;SDS011;34830;44.064;12.566;2024-03-07T01:38:14;5.38;;;2.97;;
49015;SDS011;34830;44.064;12.566;2024-03-07T01:40:41;5.50;;;2.30;;
49015;SDS011;34830;44.064;12.566;2024-03-07T01:43:08;5.85;;;2.28;;
49015;SDS011;34830;44.064;12.566;2024-03-07T01:45:34;4.13;;;2.30;;
49015;SDS011;34830;44.064;12.566;2024-03-07T01:48:03;4.88;;;2.60;;
49015;SDS011;34830;44.064;12.566;2024-03-07T01:50:35;5.47;;;2.40;;
49015;SDS011;34830;44.064;12.566;2024-03-07T01:53:05;4.82;;;2.72;;
49015;SDS011;34830;44.064;12.566;2024-03-07T01:55:32;6.05;;;3.00;;
49015;SDS011;34830;44.064;12.566;2024-03-07T01:57:59;4.38;;;2.42;;
49015;SDS011;34830;44.064;12.566;2024-03-07T02:00:28;6.43;;;2.33;;
49015;SDS011;34830;44.064;12.566;2024-03-07T02:02:54;9.23;;;2.88;;
49015;SDS011;34830;44.064;12.566;2024-03-07T02:05:20;6.55;;;2.25;;
49015;SDS011;34830;44.064;12.566;2024-03-07T02:07:47;10.45;;;3.10;;
49015;SDS011;34830;44.064;12.566;2024-03-07T02:10:13;6.95;;;2.60;;
49015;SDS011;34830;44.064;12.566;2024-03-07T02:12:39;3.70;;;2.05;;
49015;SDS011;34830;44.064;12.566;2024-03-07T02:15:05;7.00;;;2.95;;
49015;SDS011;34830;44.064;12.566;2024-03-07T02:17:31;8.10;;;2.30;;
49015;SDS011;34830;44.064;12.566;2024-03-07T02:19:57;4.53;;;2.00;;
49015;SDS011;34830;44.064;12.566;2024-03-07T02:22:24;6.40;;;2.33;;
49015;SDS011;34830;44.064;12.566;2024-03-07T02:24:52;6.03;;;2.35;;
49015;SDS011;34830;44.064;12.566;2024-03-07T02:27:18;2.75;;;1.52;;
49015;SDS011;34830;44.064;12.566;2024-03-07T02:29:44;4.18;;;1.95;;
49015;SDS011;34830;44.064;12.566;2024-03-07T02:32:12;5.47;;;2.13;;
49015;SDS011;34830;44.064;12.566;2024-03-07T02:34:38;6.65;;;2.53;;
49015;SDS011;34830;44.064;12.566;2024-03-07T02:37:05;3.92;;;2.20;;
49015;SDS011;34830;44.064;12.566;2024-03-07T02:39:31;6.35;;;2.22;;
49015;SDS011;34830;44.064;12.566;2024-03-07T02:41:57;3.58;;;2.33;;
49015;SDS011;34830;44.064;12.566;2024-03-07T02:44:23;5.70;;;2.28;;
49015;SDS011;34830;44.064;12.566;2024-03-07T02:46:49;3.90;;;2.25;;
49015;SDS011;34830;44.064;12.566;2024-03-07T02:49:15;5.70;;;2.20;;
49015;SDS011;34830;44.064;12.566;2024-03-07T02:51:41;6.28;;;2.85;;
49015;SDS011;34830;44.064;12.566;2024-03-07T02:54:08;5.65;;;2.40;;
49015;SDS011;34830;44.064;12.566;2024-03-07T02:56:34;5.85;;;2.05;;
49015;SDS011;34830;44.064;12.566;2024-03-07T02:59:00;7.20;;;2.38;;
49015;SDS011;34830;44.064;12.566;2024-03-07T03:01:27;8.60;;;2.58;;
49015;SDS011;34830;44.064;12.566;2024-03-07T03:03:53;7.55;;;2.70;;
49015;SDS011;34830;44.064;12.566;2024-03-07T03:06:20;4.13;;;2.45;;
49015;SDS011;34830;44.064;12.566;2024-03-07T03:08:46;6.45;;;2.30;;
49015;SDS011;34830;44.064;12.566;2024-03-07T03:11:13;6.80;;;2.60;;
49015;SDS011;34830;44.064;12.566;2024-03-07T03:13:40;17.60;;;2.85;;
49015;SDS011;34830;44.064;12.566;2024-03-07T03:16:06;8.88;;;3.45;;
49015;SDS011;34830;44.064;12.566;2024-03-07T03:18:34;7.75;;;3.30;;
49015;SDS011;34830;44.064;12.566;2024-03-07T03:21:00;5.88;;;2.75;;
49015;SDS011;34830;44.064;12.566;2024-03-07T03:23:28;4.72;;;2.90;;
49015;SDS011;34830;44.064;12.566;2024-03-07T03:25:54;5.63;;;2.95;;
49015;SDS011;34830;44.064;12.566;2024-03-07T03:28:21;6.57;;;3.40;;
49015;SDS011;34830;44.064;12.566;2024-03-07T03:30:48;8.07;;;3.78;;
49015;SDS011;34830;44.064;12.566;2024-03-07T03:33:15;8.43;;;3.83;;
49015;SDS011;34830;44.064;12.566;2024-03-07T03:35:41;7.78;;;3.63;;
49015;SDS011;34830;44.064;12.566;2024-03-07T03:38:07;7.53;;;4.13;;
49015;SDS011;34830;44.064;12.566;2024-03-07T03:40:34;7.55;;;3.63;;
49015;SDS011;34830;44.064;12.566;2024-03-07T03:43:00;7.07;;;3.95;;
49015;SDS011;34830;44.064;12.566;2024-03-07T03:45:26;8.07;;;3.80;;
49015;SDS011;34830;44.064;12.566;2024-03-07T03:47:52;9.52;;;3.85;;
49015;SDS011;34830;44.064;12.566;2024-03-07T03:50:19;9.25;;;3.92;;
49015;SDS011;34830;44.064;12.566;2024-03-07T03:52:45;6.65;;;4.45;;
49015;SDS011;34830;44.064;12.566;2024-03-07T03:55:11;15.43;;;4.60;;
49015;SDS011;34830;44.064;12.566;2024-03-07T03:57:39;6.72;;;3.90;;
49015;SDS011;34830;44.064;12.566;2024-03-07T04:00:06;9.52;;;4.72;;
49015;SDS011;34830;44.064;12.566;2024-03-07T04:02:42;8.55;;;4.85;;
49015;SDS011;34830;44.064;12.566;2024-03-07T04:05:14;6.40;;;4.05;;
49015;SDS011;34830;44.064;12.566;2024-03-07T04:07:41;7.97;;;4.15;;
49015;SDS011;34830;44.064;12.566;2024-03-07T04:10:09;12.48;;;5.55;;
49015;SDS011;34830;44.064;12.566;2024-03-07T04:12:37;7.88;;;5.70;;
49015;SDS011;34830;44.064;12.566;2024-03-07T04:15:05;11.13;;;5.28;;
49015;SDS011;34830;44.064;12.566;2024-03-07T04:17:33;10.25;;;5.05;;
49015;SDS011;34830;44.064;12.566;2024-03-07T04:20:00;8.38;;;5.10;;
49015;SDS011;34830;44.064;12.566;2024-03-07T04:22:26;12.20;;;5.00;;
49015;SDS011;34830;44.064;12.566;2024-03-07T04:24:53;11.02;;;5.43;;
49015;SDS011;34830;44.064;12.566;2024-03-07T04:27:22;9.25;;;5.38;;
49015;SDS011;34830;44.064;12.566;2024-03-07T04:29:48;9.07;;;5.13;;
49015;SDS011;34830;44.064;12.566;2024-03-07T04:32:14;9.95;;;5.57;;
49015;SDS011;34830;44.064;12.566;2024-03-07T04:34:40;9.40;;;5.18;;
49015;SDS011;34830;44.064;12.566;2024-03-07T04:37:07;10.68;;;5.50;;
49015;SDS011;34830;44.064;12.566;2024-03-07T04:39:33;9.18;;;5.45;;
49015;SDS011;34830;44.064;12.566;2024-03-07T04:41:59;10.45;;;5.57;;
49015;SDS011;34830;44.064;12.566;2024-03-07T04:44:28;9.68;;;6.05;;
49015;SDS011;34830;44.064;12.566;2024-03-07T04:46:55;10.60;;;6.00;;
49015;SDS011;34830;44.064;12.566;2024-03-07T04:49:22;10.18;;;5.70;;
49015;SDS011;34830;44.064;12.566;2024-03-07T04:51:50;24.15;;;7.20;;
49015;SDS011;34830;44.064;12.566;2024-03-07T04:54:20;18.45;;;7.93;;
49015;SDS011;34830;44.064;12.566;2024-03-07T04:56:47;9.90;;;6.35;;
49015;SDS011;34830;44.064;12.566;2024-03-07T04:59:13;11.13;;;6.95;;
49015;SDS011;34830;44.064;12.566;2024-03-07T05:01:40;16.67;;;6.78;;
49015;SDS011;34830;44.064;12.566;2024-03-07T05:04:06;10.93;;;6.40;;
49015;SDS011;34830;44.064;12.566;2024-03-07T05:06:33;15.75;;;8.50;;
49015;SDS011;34830;44.064;12.566;2024-03-07T05:09:02;10.30;;;6.38;;
49015;SDS011;34830;44.064;12.566;2024-03-07T05:11:29;11.18;;;7.22;;
49015;SDS011;34830;44.064;12.566;2024-03-07T05:13:56;10.45;;;6.70;;
49015;SDS011;34830;44.064;12.566;2024-03-07T05:16:26;10.48;;;6.20;;
49015;SDS011;34830;44.064;12.566;2024-03-07T05:18:56;12.40;;;7.13;;
49015;SDS011;34830;44.064;12.566;2024-03-07T05:21:28;16.17;;;7.22;;
49015;SDS011;34830;44.064;12.566;2024-03-07T05:24:03;10.95;;;7.07;;
49015;SDS011;34830;44.064;12.566;2024-03-07T05:26:30;13.30;;;7.22;;
49015;SDS011;34830;44.064;12.566;2024-03-07T05:29:03;13.15;;;7.05;;
49015;SDS011;34830;44.064;12.566;2024-03-07T05:31:36;11.30;;;6.53;;
49015;SDS011;34830;44.064;12.566;2024-03-07T05:34:03;17.38;;;8.25;;
49015;SDS011;34830;44.064;12.566;2024-03-07T05:36:37;9.50;;;7.00;;
49015;SDS011;34830;44.064;12.566;2024-03-07T05:39:12;11.45;;;6.90;;
49015;SDS011;34830;44.064;12.566;2024-03-07T05:41:39;9.65;;;6.90;;
49015;SDS011;34830;44.064;12.566;2024-03-07T05:44:06;11.43;;;7.72;;
49015;SDS011;34830;44.064;12.566;2024-03-07T05:46:36;13.60;;;7.05;;
49015;SDS011;34830;44.064;12.566;2024-03-07T05:49:09;11.10;;;6.68;;
49015;SDS011;34830;44.064;12.566;2024-03-07T05:51:35;12.75;;;7.18;;
49015;SDS011;34830;44.064;12.566;2024-03-07T05:54:02;16.40;;;8.95;;
49015;SDS011;34830;44.064;12.566;2024-03-07T05:56:32;10.25;;;6.95;;
49015;SDS011;34830;44.064;12.566;2024-03-07T05:59:02;12.30;;;7.50;;
49015;SDS011;34830;44.064;12.566;2024-03-07T06:01:30;12.45;;;7.82;;
49015;SDS011;34830;44.064;12.566;2024-03-07T06:03:58;12.63;;;7.22;;
49015;SDS011;34830;44.064;12.566;2024-03-07T06:06:25;11.88;;;7.15;;
49015;SDS011;34830;44.064;12.566;2024-03-07T06:08:51;10.95;;;6.78;;
49015;SDS011;34830;44.064;12.566;2024-03-07T06:11:17;12.65;;;7.72;;
49015;SDS011;34830;44.064;12.566;2024-03-07T06:13:47;16.40;;;8.63;;
49015;SDS011;34830;44.064;12.566;2024-03-07T06:16:14;10.82;;;7.50;;
49015;SDS011;34830;44.064;12.566;2024-03-07T06:18:40;13.13;;;7.30;;
49015;SDS011;34830;44.064;12.566;2024-03-07T06:21:07;11.30;;;7.32;;
49015;SDS011;34830;44.064;12.566;2024-03-07T06:23:34;13.90;;;7.40;;
49015;SDS011;34830;44.064;12.566;2024-03-07T06:26:00;16.13;;;7.90;;
49015;SDS011;34830;44.064;12.566;2024-03-07T06:28:26;15.57;;;7.88;;
49015;SDS011;34830;44.064;12.566;2024-03-07T06:30:55;11.32;;;8.02;;
49015;SDS011;34830;44.064;12.566;2024-03-07T06:33:21;11.95;;;7.55;;
49015;SDS011;34830;44.064;12.566;2024-03-07T06:35:48;18.08;;;8.30;;
49015;SDS011;34830;44.064;12.566;2024-03-07T06:38:14;16.52;;;7.40;;
49015;SDS011;34830;44.064;12.566;2024-03-07T06:40:40;14.63;;;8.57;;
49015;SDS011;34830;44.064;12.566;2024-03-07T06:43:11;14.13;;;7.63;;
49015;SDS011;34830;44.064;12.566;2024-03-07T06:45:38;15.80;;;7.43;;
49015;SDS011;34830;44.064;12.566;2024-03-07T06:48:07;12.68;;;7.75;;
49015;SDS011;34830;44.064;12.566;2024-03-07T06:50:34;16.90;;;7.80;;
49015;SDS011;34830;44.064;12.566;2024-03-07T06:53:04;18.10;;;8.45;;
49015;SDS011;34830;44.064;12.566;2024-03-07T06:57:59;16.80;;;7.38;;
49015;SDS011;34830;44.064;12.566;2024-03-07T07:00:25;13.30;;;7.97;;
49015;SDS011;34830;44.064;12.566;2024-03-07T07:02:52;14.35;;;7.57;;
49015;SDS011;34830;44.064;12.566;2024-03-07T07:05:21;14.55;;;7.80;;
49015;SDS011;34830;44.064;12.566;2024-03-07T07:07:47;16.45;;;7.68;;
49015;SDS011;34830;44.064;12.566;2024-03-07T07:10:14;14.95;;;8.48;;
49015;SDS011;34830;44.064;12.566;2024-03-07T07:12:50;10.55;;;6.88;;
49015;SDS011;34830;44.064;12.566;2024-03-07T07:15:20;15.25;;;7.63;;
49015;SDS011;34830;44.064;12.566;2024-03-07T07:17:46;10.32;;;6.53;;
49015;SDS011;34830;44.064;12.566;2024-03-07T07:20:15;15.88;;;7.90;;
49015;SDS011;34830;44.064;12.566;2024-03-07T07:22:43;20.60;;;7.40;;
49015;SDS011;34830;44.064;12.566;2024-03-07T07:25:11;14.85;;;7.55;;
49015;SDS011;34830;44.064;12.566;2024-03-07T07:27:40;16.50;;;7.55;;
49015;SDS011;34830;44.064;12.566;2024-03-07T07:30:08;14.88;;;8.02;;
49015;SDS011;34830;44.064;12.566;2024-03-07T07:32:35;17.33;;;8.85;;
49015;SDS011;34830;44.064;12.566;2024-03-07T07:35:02;15.75;;;7.57;;
49015;SDS011;34830;44.064;12.566;2024-03-07T07:37:28;12.18;;;7.18;;
49015;SDS011;34830;44.064;12.566;2024-03-07T07:39:54;16.42;;;7.43;;
49015;SDS011;34830;44.064;12.566;2024-03-07T07:42:20;14.95;;;6.88;;
49015;SDS011;34830;44.064;12.566;2024-03-07T07:44:46;13.65;;;7.00;;
49015;SDS011;34830;44.064;12.566;2024-03-07T07:47:12;13.70;;;7.13;;
49015;SDS011;34830;44.064;12.566;2024-03-07T07:49:38;12.98;;;6.63;;
49015;SDS011;34830;44.064;12.566;2024-03-07T07:52:05;18.00;;;8.38;;
49015;SDS011;34830;44.064;12.566;2024-03-07T07:54:32;14.38;;;7.00;;
49015;SDS011;34830;44.064;12.566;2024-03-07T07:56:58;14.10;;;6.43;;
49015;SDS011;34830;44.064;12.566;2024-03-07T07:59:24;23.08;;;6.78;;
49015;SDS011;34830;44.064;12.566;2024-03-07T08:01:50;11.00;;;6.68;;
49015;SDS011;34830;44.064;12.566;2024-03-07T08:04:18;15.85;;;7.10;;
49015;SDS011;34830;44.064;12.566;2024-03-07T08:06:44;14.82;;;6.55;;
49015;SDS011;34830;44.064;12.566;2024-03-07T08:09:10;10.50;;;6.68;;
49015;SDS011;34830;44.064;12.566;2024-03-07T08:11:36;16.98;;;7.57;;
49015;SDS011;34830;44.064;12.566;2024-03-07T08:14:02;12.60;;;7.05;;
49015;SDS011;34830;44.064;12.566;2024-03-07T08:16:29;12.65;;;6.95;;
49015;SDS011;34830;44.064;12.566;2024-03-07T08:18:55;12.35;;;6.95;;
49015;SDS011;34830;44.064;12.566;2024-03-07T08:21:21;14.27;;;6.75;;
49015;SDS011;34830;44.064;12.566;2024-03-07T08:23:49;14.07;;;6.50;;
49015;SDS011;34830;44.064;12.566;2024-03-07T08:26:15;13.25;;;6.90;;
49015;SDS011;34830;44.064;12.566;2024-03-07T08:28:44;9.70;;;6.30;;
49015;SDS011;34830;44.064;12.566;2024-03-07T08:31:10;12.60;;;7.10;;
49015;SDS011;34830;44.064;12.566;2024-03-07T08:33:36;10.23;;;6.18;;
49015;SDS011;34830;44.064;12.566;2024-03-07T08:36:02;12.18;;;6.88;;
49015;SDS011;34830;44.064;12.566;2024-03-07T08:38:28;11.38;;;6.72;;
49015;SDS011;34830;44.064;12.566;2024-03-07T08:40:54;13.75;;;6.35;;
49015;SDS011;34830;44.064;12.566;2024-03-07T08:43:20;11.50;;;7.20;;
49015;SDS011;34830;44.064;12.566;2024-03-07T08:45:47;11.43;;;6.35;;
49015;SDS011;34830;44.064;12.566;2024-03-07T08:48:13;14.00;;;7.10;;
49015;SDS011;34830;44.064;12.566;2024-03-07T08:50:40;11.68;;;6.35;;
49015;SDS011;34830;44.064;12.566;2024-03-07T08:53:06;10.05;;;5.93;;
49015;SDS011;34830;44.064;12.566;2024-03-07T08:55:32;14.20;;;6.93;;
49015;SDS011;34830;44.064;12.566;2024-03-07T08:58:01;12.20;;;6.72;;
49015;SDS011;34830;44.064;12.566;2024-03-07T09:00:27;10.63;;;6.22;;
49015;SDS011;34830;44.064;12.566;2024-03-07T09:02:57;11.40;;;6.47;;
49015;SDS011;34830;44.064;12.566;2024-03-07T09:05:25;9.82;;;6.68;;
49015;SDS011;34830;44.064;12.566;2024-03-07T09:07:52;12.98;;;6.55;;
49015;SDS011;34830;44.064;12.566;2024-03-07T09:10:19;13.95;;;7.32;;
49015;SDS011;34830;44.064;12.566;2024-03-07T09:12:46;11.45;;;6.00;;
49015;SDS011;34830;44.064;12.566;2024-03-07T09:15:15;11.15;;;6.30;;
49015;SDS011;34830;44.064;12.566;2024-03-07T09:17:47;9.77;;;6.22;;
49015;SDS011;34830;44.064;12.566;2024-03-07T09:20:13;12.77;;;6.20;;
49015;SDS011;34830;44.064;12.566;2024-03-07T09:22:42;11.75;;;6.82;;
49015;SDS011;34830;44.064;12.566;2024-03-07T09:25:09;10.38;;;5.93;;
49015;SDS011;34830;44.064;12.566;2024-03-07T09:27:36;10.40;;;6.82;;
49015;SDS011;34830;44.064;12.566;2024-03-07T09:30:03;15.07;;;6.88;;
49015;SDS011;34830;44.064;12.566;2024-03-07T09:32:30;10.65;;;6.68;;
49015;SDS011;34830;44.064;12.566;2024-03-07T09:34:58;10.20;;;6.15;;
49015;SDS011;34830;44.064;12.566;2024-03-07T09:37:26;10.68;;;6.03;;
49015;SDS011;34830;44.064;12.566;2024-03-07T09:39:52;13.75;;;6.78;;
49015;SDS011;34830;44.064;12.566;2024-03-07T09:42:18;14.65;;;7.53;;
49015;SDS011;34830;44.064;12.566;2024-03-07T09:44:45;11.18;;;7.03;;
49015;SDS011;34830;44.064;12.566;2024-03-07T09:47:13;12.75;;;6.15;;
49015;SDS011;34830;44.064;12.566;2024-03-07T09:49:39;9.35;;;6.45;;
49015;SDS011;34830;44.064;12.566;2024-03-07T09:52:08;14.48;;;6.57;;
49015;SDS011;34830;44.064;12.566;2024-03-07T09:54:37;10.20;;;6.30;;
49015;SDS011;34830;44.064;12.566;2024-03-07T09:57:06;14.35;;;6.97;;
49015;SDS011;34830;44.064;12.566;2024-03-07T09:59:34;11.98;;;7.30;;
49015;SDS011;34830;44.064;12.566;2024-03-07T10:02:06;12.90;;;7.35;;
49015;SDS011;34830;44.064;12.566;2024-03-07T10:07:17;9.45;;;6.50;;
49015;SDS011;34830;44.064;12.566;2024-03-07T10:09:44;11.68;;;6.82;;
49015;SDS011;34830;44.064;12.566;2024-03-07T10:12:10;17.13;;;6.60;;
49015;SDS011;34830;44.064;12.566;2024-03-07T10:14:56;10.40;;;6.40;;
49015;SDS011;34830;44.064;12.566;2024-03-07T10:17:26;12.90;;;6.63;;
49015;SDS011;34830;44.064;12.566;2024-03-07T10:19:52;11.57;;;6.25;;
49015;SDS011;34830;44.064;12.566;2024-03-07T10:22:19;11.40;;;6.13;;
49015;SDS011;34830;44.064;12.566;2024-03-07T10:25:04;13.02;;;6.95;;
49015;SDS011;34830;44.064;12.566;2024-03-07T10:27:30;13.43;;;6.47;;
49015;SDS011;34830;44.064;12.566;2024-03-07T10:29:56;11.27;;;6.20;;
49015;SDS011;34830;44.064;12.566;2024-03-07T10:32:22;10.30;;;6.35;;
49015;SDS011;34830;44.064;12.566;2024-03-07T10:34:52;11.20;;;6.78;;
49015;SDS011;34830;44.064;12.566;2024-03-07T10:37:19;11.80;;;5.72;;
49015;SDS011;34830;44.064;12.566;2024-03-07T10:39:46;12.85;;;6.10;;
49015;SDS011;34830;44.064;12.566;2024-03-07T10:42:13;10.23;;;6.40;;
49015;SDS011;34830;44.064;12.566;2024-03-07T10:44:47;11.80;;;5.45;;
49015;SDS011;34830;44.064;12.566;2024-03-07T10:47:18;11.75;;;5.82;;
49015;SDS011;34830;44.064;12.566;2024-03-07T10:56:33;7.30;;;4.53;;
49015;SDS011;34830;44.064;12.566;2024-03-07T10:58:42;11.73;;;6.55;;
49015;SDS011;34830;44.064;12.566;2024-03-07T11:01:30;11.43;;;6.82;;
49015;SDS011;34830;44.064;12.566;2024-03-07T11:04:00;10.60;;;5.97;;
49015;SDS011;34830;44.064;12.566;2024-03-07T11:06:30;5.47;;;2.97;;
49015;SDS011;34830;44.064;12.566;2024-03-07T11:09:05;7.45;;;3.42;;
49015;SDS011;34830;44.064;12.566;2024-03-07T11:11:40;9.75;;;4.72;;
49015;SDS011;34830;44.064;12.566;2024-03-07T11:14:08;10.52;;;6.07;;
49015;SDS011;34830;44.064;12.566;2024-03-07T11:16:37;8.77;;;4.75;;
49015;SDS011;34830;44.064;12.566;2024-03-07T11:22:02;9.20;;;4.53;;
49015;SDS011;34830;44.064;12.566;2024-03-07T11:24:41;11.63;;;4.25;;
49015;SDS011;34830;44.064;12.566;2024-03-07T11:27:09;8.20;;;4.22;;
49015;SDS011;34830;44.064;12.566;2024-03-07T11:29:49;6.82;;;4.65;;
49015;SDS011;34830;44.064;12.566;2024-03-07T11:32:19;7.78;;;3.88;;
49015;SDS011;34830;44.064;12.566;2024-03-07T11:34:46;7.60;;;4.25;;
49015;SDS011;34830;44.064;12.566;2024-03-07T11:37:16;7.63;;;4.53;;
49015;SDS011;34830;44.064;12.566;2024-03-07T11:39:44;6.53;;;3.83;;
49015;SDS011;34830;44.064;12.566;2024-03-07T11:44:54;6.50;;;3.13;;
49015;SDS011;34830;44.064;12.566;2024-03-07T11:47:24;11.18;;;4.13;;
49015;SDS011;34830;44.064;12.566;2024-03-07T11:49:54;6.83;;;3.60;;
49015;SDS011;34830;44.064;12.566;2024-03-07T11:52:23;6.15;;;3.60;;
49015;SDS011;34830;44.064;12.566;2024-03-07T11:54:50;9.45;;;3.80;;
49015;SDS011;34830;44.064;12.566;2024-03-07T11:57:17;5.38;;;2.78;;
49015;SDS011;34830;44.064;12.566;2024-03-07T11:59:52;7.97;;;3.22;;
49015;SDS011;34830;44.064;12.566;2024-03-07T12:02:18;6.43;;;3.72;;
49015;SDS011;34830;44.064;12.566;2024-03-07T12:04:48;5.90;;;3.53;;
49015;SDS011;34830;44.064;12.566;2024-03-07T12:07:15;6.20;;;3.35;;
49015;SDS011;34830;44.064;12.566;2024-03-07T12:09:43;8.05;;;3.65;;
49015;SDS011;34830;44.064;12.566;2024-03-07T12:12:16;7.55;;;4.05;;
49015;SDS011;34830;44.064;12.566;2024-03-07T12:14:44;5.53;;;3.92;;
49015;SDS011;34830;44.064;12.566;2024-03-07T12:17:10;6.68;;;3.88;;
49015;SDS011;34830;44.064;12.566;2024-03-07T12:19:37;6.32;;;3.67;;
49015;SDS011;34830;44.064;12.566;2024-03-07T12:22:07;8.23;;;3.95;;
49015;SDS011;34830;44.064;12.566;2024-03-07T12:24:40;6.97;;;3.53;;
49015;SDS011;34830;44.064;12.566;2024-03-07T12:27:11;5.82;;;3.55;;
49015;SDS011;34830;44.064;12.566;2024-03-07T12:29:41;6.33;;;3.17;;
49015;SDS011;34830;44.064;12.566;2024-03-07T12:32:14;9.43;;;3.88;;
49015;SDS011;34830;44.064;12.566;2024-03-07T12:34:40;5.82;;;3.13;;
49015;SDS011;34830;44.064;12.566;2024-03-07T12:37:07;10.57;;;4.43;;
49015;SDS011;34830;44.064;12.566;2024-03-07T12:39:35;7.90;;;4.00;;
49015;SDS011;34830;44.064;12.566;2024-03-07T12:42:04;5.68;;;3.55;;
49015;SDS011;34830;44.064;12.566;2024-03-07T12:44:41;8.70;;;4.45;;
49015;SDS011;34830;44.064;12.566;2024-03-07T12:47:13;10.57;;;4.25;;
49015;SDS011;34830;44.064;12.566;2024-03-07T12:49:45;11.38;;;4.47;;
49015;SDS011;34830;44.064;12.566;2024-03-07T12:52:12;6.13;;;3.90;;
49015;SDS011;34830;44.064;12.566;2024-03-07T12:54:41;12.50;;;4.90;;
49015;SDS011;34830;44.064;12.566;2024-03-07T12:57:08;5.57;;;3.42;;
49015;SDS011;34830;44.064;12.566;2024-03-07T12:59:35;7.30;;;3.38;;
49015;SDS011;34830;44.064;12.566;2024-03-07T13:02:09;6.63;;;3.50;;
49015;SDS011;34830;44.064;12.566;2024-03-07T13:04:36;7.32;;;3.53;;
49015;SDS011;34830;44.064;12.566;2024-03-07T13:07:03;5.88;;;3.15;;
49015;SDS011;34830;44.064;12.566;2024-03-07T13:09:30;11.27;;;4.10;;
49015;SDS011;34830;44.064;12.566;2024-03-07T13:12:00;8.43;;;3.53;;
49015;SDS011;34830;44.064;12.566;2024-03-07T13:14:27;8.07;;;3.35;;
49015;SDS011;34830;44.064;12.566;2024-03-07T13:16:58;11.48;;;3.47;;
49015;SDS011;34830;44.064;12.566;2024-03-07T13:19:32;7.78;;;3.58;;
49015;SDS011;34830;44.064;12.566;2024-03-07T13:21:58;6.28;;;3.17;;
49015;SDS011;34830;44.064;12.566;2024-03-07T13:24:27;8.52;;;4.05;;
49015;SDS011;34830;44.064;12.566;2024-03-07T13:26:53;6.82;;;3.03;;
49015;SDS011;34830;44.064;12.566;2024-03-07T13:29:19;7.53;;;3.50;;
49015;SDS011;34830;44.064;12.566;2024-03-07T13:31:50;6.30;;;4.00;;
49015;SDS011;34830;44.064;12.566;2024-03-07T13:34:17;8.95;;;3.42;;
49015;SDS011;34830;44.064;12.566;2024-03-07T13:36:43;6.35;;;3.38;;
49015;SDS011;34830;44.064;12.566;2024-03-07T13:39:10;10.88;;;3.70;;
49015;SDS011;34830;44.064;12.566;2024-03-07T13:41:37;12.38;;;4.35;;
49015;SDS011;34830;44.064;12.566;2024-03-07T13:44:04;7.28;;;3.70;;
49015;SDS011;34830;44.064;12.566;2024-03-07T13:46:31;8.63;;;3.65;;
49015;SDS011;34830;44.064;12.566;2024-03-07T13:49:01;4.90;;;2.97;;
49015;SDS011;34830;44.064;12.566;2024-03-07T13:51:42;5.38;;;2.80;;
49015;SDS011;34830;44.064;12.566;2024-03-07T13:54:29;8.43;;;2.95;;
49015;SDS011;34830;44.064;12.566;2024-03-07T13:57:49;6.88;;;3.20;;
49015;SDS011;34830;44.064;12.566;2024-03-07T14:02:33;7.43;;;3.35;;
49015;SDS011;34830;44.064;12.566;2024-03-07T14:05:15;7.57;;;3.40;;
49015;SDS011;34830;44.064;12.566;2024-03-07T14:22:53;7.88;;;4.63;;
49015;SDS011;34830;44.064;12.566;2024-03-07T14:25:38;12.10;;;5.55;;
49015;SDS011;34830;44.064;12.566;2024-03-07T14:28:32;15.48;;;10.32;;
49015;SDS011;34830;44.064;12.566;2024-03-07T14:31:11;9.82;;;5.53;;
49015;SDS011;34830;44.064;12.566;2024-03-07T14:33:54;9.35;;;5.93;;
49015;SDS011;34830;44.064;12.566;2024-03-07T14:39:48;9.82;;;6.25;;
49015;SDS011;34830;44.064;12.566;2024-03-07T14:42:16;9.50;;;6.28;;
49015;SDS011;34830;44.064;12.566;2024-03-07T14:44:42;15.43;;;6.63;;
49015;SDS011;34830;44.064;12.566;2024-03-07T14:47:11;10.35;;;6.15;;
49015;SDS011;34830;44.064;12.566;2024-03-07T14:49:40;10.02;;;5.57;;
49015;SDS011;34830;44.064;12.566;2024-03-07T14:52:06;15.55;;;6.30;;
49015;SDS011;34830;44.064;12.566;2024-03-07T14:54:39;8.57;;;5.30;;
49015;SDS011;34830;44.064;12.566;2024-03-07T14:57:07;12.85;;;5.80;;
49015;SDS011;34830;44.064;12.566;2024-03-07T14:59:36;7.63;;;4.85;;
49015;SDS011;34830;44.064;12.566;2024-03-07T15:02:02;8.73;;;4.72;;
49015;SDS011;34830;44.064;12.566;2024-03-07T15:04:29;9.80;;;5.22;;
49015;SDS011;34830;44.064;12.566;2024-03-07T15:06:58;8.82;;;5.35;;
49015;SDS011;34830;44.064;12.566;2024-03-07T15:09:24;12.13;;;4.95;;
49015;SDS011;34830;44.064;12.566;2024-03-07T15:11:50;8.85;;;5.15;;
49015;SDS011;34830;44.064;12.566;2024-03-07T15:14:16;9.20;;;4.88;;
49015;SDS011;34830;44.064;12.566;2024-03-07T15:16:42;11.80;;;5.30;;
49015;SDS011;34830;44.064;12.566;2024-03-07T15:19:09;16.15;;;5.50;;
49015;SDS011;34830;44.064;12.566;2024-03-07T15:21:38;9.82;;;4.78;;
49015;SDS011;34830;44.064;12.566;2024-03-07T15:24:04;8.88;;;4.90;;
49015;SDS011;34830;44.064;12.566;2024-03-07T15:26:30;11.07;;;5.20;;
49015;SDS011;34830;44.064;12.566;2024-03-07T15:28:57;7.15;;;4.32;;